createdAt,value
2017-12-14T00:02:27.335Z,1.03
2017-12-14T00:04:55.045Z,1.37
2017-12-14T00:07:22.716Z,1.30
2017-12-14T00:09:50.411Z,1.57
2017-12-14T00:12:18.051Z,1.00
2017-12-14T00:14:45.809Z,1.30
2017-12-14T00:17:13.514Z,1.30
2017-12-14T00:19:41.155Z,1.40
2017-12-14T00:22:08.889Z,1.00
2017-12-14T00:24:36.059Z,1.27
2017-12-14T00:27:03.868Z,1.20
2017-12-14T00:29:32.284Z,1.27
2017-12-14T00:31:59.925Z,1.07
2017-12-14T00:34:27.585Z,1.70
2017-12-14T00:36:55.447Z,1.07
2017-12-14T00:39:23.136Z,0.90
2017-12-14T00:41:50.890Z,1.30
2017-12-14T00:44:18.784Z,1.50
2017-12-14T00:46:46.467Z,1.20
2017-12-14T00:49:14.221Z,0.97
2017-12-14T00:51:42.759Z,1.13
2017-12-14T00:54:10.428Z,1.33
2017-12-14T00:56:38.112Z,1.23
2017-12-14T00:59:05.860Z,1.00
2017-12-14T01:01:33.529Z,1.20
2017-12-14T01:04:01.843Z,2.00
2017-12-14T01:06:30.327Z,1.30
2017-12-14T01:08:58.795Z,1.20
2017-12-14T01:11:27.303Z,1.23
2017-12-14T01:13:55.024Z,1.23
2017-12-14T01:16:22.690Z,0.80
2017-12-14T01:18:51.111Z,1.00
2017-12-14T01:21:18.827Z,1.03
2017-12-14T01:23:46.549Z,0.93
2017-12-14T01:26:14.178Z,0.90
2017-12-14T01:28:41.864Z,1.00
2017-12-14T01:31:10.360Z,1.47
2017-12-14T01:33:38.072Z,1.00
2017-12-14T01:36:06.476Z,1.40
2017-12-14T01:38:34.150Z,1.00
2017-12-14T01:41:01.872Z,1.50
2017-12-14T01:43:29.576Z,0.97
2017-12-14T01:45:57.248Z,1.00
2017-12-14T01:48:24.945Z,1.00
2017-12-14T01:50:53.407Z,1.10
2017-12-14T01:53:21.083Z,1.30
2017-12-14T01:55:49.551Z,1.00
2017-12-14T01:58:18.069Z,0.97
2017-12-14T02:00:49.379Z,0.97
2017-12-14T02:03:17.879Z,1.00
2017-12-14T02:05:45.555Z,0.83
2017-12-14T02:08:13.241Z,1.10
2017-12-14T02:10:41.086Z,0.80
2017-12-14T02:13:08.789Z,0.80
2017-12-14T02:15:36.421Z,1.00
2017-12-14T02:18:04.123Z,0.90
2017-12-14T02:20:31.791Z,0.67
2017-12-14T02:23:00.249Z,1.10
2017-12-14T02:25:27.919Z,0.93
2017-12-14T02:27:55.687Z,0.90
2017-12-14T02:30:24.152Z,1.37
2017-12-14T02:32:51.763Z,1.40
2017-12-14T02:35:19.502Z,1.13
2017-12-14T02:37:47.250Z,0.60
2017-12-14T02:40:14.998Z,1.00
2017-12-14T02:42:42.621Z,0.70
2017-12-14T02:45:10.501Z,0.50
2017-12-14T02:47:38.136Z,0.60
2017-12-14T02:50:06.095Z,0.50
2017-12-14T02:52:33.801Z,0.50
2017-12-14T02:55:01.506Z,0.40
2017-12-14T02:57:30.002Z,0.43
2017-12-14T02:59:58.460Z,0.40
2017-12-14T03:02:27.018Z,0.37
2017-12-14T03:04:54.763Z,0.50
2017-12-14T03:07:22.436Z,0.40
2017-12-14T03:09:50.226Z,0.40
2017-12-14T03:12:18.651Z,0.60
2017-12-14T03:14:46.323Z,0.30
2017-12-14T03:17:14.720Z,0.50
2017-12-14T03:19:42.459Z,0.40
2017-12-14T03:22:10.168Z,0.40
2017-12-14T03:24:38.694Z,0.50
2017-12-14T03:27:07.087Z,0.40
2017-12-14T03:29:34.832Z,0.87
2017-12-14T03:32:02.679Z,0.40
2017-12-14T03:34:30.303Z,0.37
2017-12-14T03:36:58.775Z,0.50
2017-12-14T03:39:27.262Z,0.40
2017-12-14T03:41:55.822Z,0.60
2017-12-14T03:44:23.486Z,0.50
2017-12-14T03:46:51.147Z,0.40
2017-12-14T03:49:19.164Z,0.50
2017-12-14T03:51:47.092Z,0.40
2017-12-14T03:54:15.607Z,0.40
2017-12-14T03:56:43.259Z,0.70
2017-12-14T03:59:11.026Z,0.50
2017-12-14T04:01:38.705Z,0.70
2017-12-14T04:04:06.402Z,0.73
2017-12-14T04:06:34.169Z,0.70
2017-12-14T04:09:01.892Z,0.80
2017-12-14T04:11:29.636Z,0.50
2017-12-14T04:13:57.394Z,0.77
2017-12-14T04:16:25.088Z,0.50
2017-12-14T04:18:52.914Z,0.93
2017-12-14T04:21:20.925Z,0.60
2017-12-14T04:23:48.638Z,0.80
2017-12-14T04:26:17.248Z,0.57
2017-12-14T04:28:44.953Z,0.67
2017-12-14T04:31:12.708Z,0.50
2017-12-14T04:33:40.413Z,0.87
2017-12-14T04:36:08.235Z,0.60
2017-12-14T04:38:35.988Z,0.60
2017-12-14T04:41:04.251Z,0.60
2017-12-14T04:43:31.994Z,0.50
2017-12-14T04:45:59.798Z,0.63
2017-12-14T04:48:27.523Z,0.60
2017-12-14T04:50:55.200Z,0.90
2017-12-14T04:53:25.028Z,0.60
2017-12-14T04:55:52.740Z,0.73
2017-12-14T04:58:20.616Z,0.60
2017-12-14T05:00:48.331Z,0.60
2017-12-14T05:03:16.028Z,0.73
2017-12-14T05:05:43.726Z,0.70
2017-12-14T05:08:11.371Z,0.50
2017-12-14T05:10:39.076Z,0.50
2017-12-14T05:13:06.838Z,0.47
2017-12-14T05:15:34.601Z,0.73
2017-12-14T05:18:02.369Z,0.60
2017-12-14T05:20:31.110Z,0.77
2017-12-14T05:22:58.780Z,0.70
2017-12-14T05:25:26.462Z,0.60
2017-12-14T05:27:54.265Z,0.57
2017-12-14T05:30:22.101Z,0.60
2017-12-14T05:32:49.811Z,0.60
2017-12-14T05:35:17.504Z,0.50
2017-12-14T05:37:45.228Z,0.70
2017-12-14T05:40:12.920Z,0.60
2017-12-14T05:42:40.676Z,0.47
2017-12-14T05:45:08.471Z,0.50
2017-12-14T05:47:37.604Z,0.40
2017-12-14T05:50:05.343Z,0.80
2017-12-14T05:52:33.849Z,0.50
2017-12-14T05:55:01.567Z,0.47
2017-12-14T05:57:30.062Z,0.50
2017-12-14T05:59:57.770Z,0.40
2017-12-14T06:02:27.079Z,0.60
2017-12-14T06:04:54.771Z,0.50
2017-12-14T06:07:23.206Z,0.60
2017-12-14T06:09:50.904Z,0.60
2017-12-14T06:12:18.611Z,0.47
2017-12-14T06:14:46.294Z,0.60
2017-12-14T06:17:14.739Z,0.40
2017-12-14T06:19:42.363Z,0.73
2017-12-14T06:22:12.596Z,0.50
2017-12-14T06:24:40.330Z,0.50
2017-12-14T06:27:08.110Z,0.40
2017-12-14T06:29:35.859Z,0.53
2017-12-14T06:32:03.593Z,0.40
2017-12-14T06:34:31.415Z,0.70
2017-12-14T06:37:02.924Z,0.60
2017-12-14T06:39:30.848Z,0.50
2017-12-14T06:42:04.416Z,0.50
2017-12-14T06:44:32.394Z,0.30
2017-12-14T06:47:00.375Z,0.50
2017-12-14T06:49:28.316Z,0.50
2017-12-14T06:51:56.164Z,0.63
2017-12-14T06:57:10.434Z,0.50
2017-12-14T06:59:41.195Z,0.70
2017-12-14T07:02:10.528Z,0.67
2017-12-14T07:04:42.920Z,0.60
2017-12-14T07:07:11.902Z,0.50
2017-12-14T07:09:39.614Z,0.50
2017-12-14T07:12:08.259Z,0.50
2017-12-14T07:14:35.987Z,0.50
2017-12-14T07:17:03.700Z,0.60
2017-12-14T07:19:31.611Z,0.40
2017-12-14T07:21:59.409Z,0.40
2017-12-14T07:24:27.096Z,0.40
2017-12-14T07:26:54.843Z,0.50
2017-12-14T07:29:22.547Z,0.70
2017-12-14T07:31:50.295Z,0.60
2017-12-14T07:34:18.028Z,0.50
2017-12-14T07:36:45.773Z,0.60
2017-12-14T07:39:13.493Z,0.53
2017-12-14T07:41:41.206Z,0.60
2017-12-14T07:44:20.780Z,0.90
2017-12-14T07:47:01.067Z,0.70
2017-12-14T07:49:28.798Z,0.67
2017-12-14T07:51:57.247Z,0.63
2017-12-14T07:54:25.120Z,0.50
2017-12-14T07:56:52.830Z,0.53
2017-12-14T07:59:21.730Z,0.80
2017-12-14T08:01:49.660Z,0.80
2017-12-14T08:04:18.180Z,0.80
2017-12-14T08:06:48.248Z,0.70
2017-12-14T08:09:19.324Z,0.60
2017-12-14T08:11:47.178Z,0.87
2017-12-14T08:14:15.013Z,0.60
2017-12-14T08:16:42.884Z,0.70
2017-12-14T08:19:11.515Z,0.60
2017-12-14T08:21:39.393Z,0.63
2017-12-14T08:24:08.047Z,1.13
2017-12-14T08:26:35.728Z,0.87
2017-12-14T08:29:03.687Z,0.63
2017-12-14T08:31:31.392Z,0.80
2017-12-14T08:33:59.131Z,0.77
2017-12-14T08:36:26.834Z,0.70
2017-12-14T08:38:55.277Z,0.80
2017-12-14T08:41:22.981Z,0.60
2017-12-14T08:43:50.649Z,0.70
2017-12-14T08:46:19.485Z,0.70
2017-12-14T08:48:47.187Z,0.70
2017-12-14T08:51:15.868Z,0.80
2017-12-14T08:53:44.327Z,0.73
2017-12-14T08:56:12.001Z,0.60
2017-12-14T08:58:40.487Z,0.70
2017-12-14T09:01:09.074Z,0.90
2017-12-14T09:03:37.530Z,0.60
2017-12-14T09:06:05.209Z,0.70
2017-12-14T09:08:33.685Z,0.80
2017-12-14T09:11:02.142Z,0.80
2017-12-14T09:13:29.915Z,0.70
2017-12-14T09:15:57.596Z,0.70
2017-12-14T09:18:27.199Z,1.00
2017-12-14T09:20:55.689Z,0.60
2017-12-14T09:23:23.375Z,0.70
2017-12-14T09:25:51.102Z,0.80
2017-12-14T09:28:19.564Z,1.00
2017-12-14T09:30:47.261Z,0.70
2017-12-14T09:33:14.959Z,0.60
2017-12-14T09:35:42.767Z,0.70
2017-12-14T09:38:11.217Z,0.70
2017-12-14T09:40:38.899Z,0.70
2017-12-14T09:43:07.385Z,0.77
2017-12-14T09:45:36.021Z,0.50
2017-12-14T09:48:03.801Z,0.80
2017-12-14T09:50:31.525Z,0.60
2017-12-14T09:52:59.192Z,0.53
2017-12-14T09:55:27.138Z,0.50
2017-12-14T09:57:54.822Z,0.90
2017-12-14T10:00:22.531Z,0.60
2017-12-14T10:02:50.971Z,0.70
2017-12-14T10:05:18.778Z,0.70
2017-12-14T10:07:47.231Z,0.80
2017-12-14T10:10:14.884Z,0.60
2017-12-14T10:12:42.583Z,0.53
2017-12-14T10:15:11.043Z,0.50
2017-12-14T10:17:38.784Z,1.80
2017-12-14T10:20:06.455Z,1.00
2017-12-14T10:22:34.123Z,0.60
2017-12-14T10:25:01.852Z,0.70
2017-12-14T10:27:29.538Z,0.60
2017-12-14T10:29:57.281Z,0.60
2017-12-14T10:32:24.963Z,0.70
2017-12-14T10:34:52.635Z,0.60
2017-12-14T10:37:20.396Z,0.50
2017-12-14T10:39:48.878Z,0.53
2017-12-14T10:42:16.631Z,0.70
2017-12-14T10:44:44.315Z,0.70
2017-12-14T10:47:12.803Z,0.77
2017-12-14T10:49:40.487Z,0.90
2017-12-14T10:52:08.199Z,0.70
2017-12-14T10:54:35.932Z,0.80
2017-12-14T10:57:03.576Z,0.63
2017-12-14T10:59:31.293Z,0.70
2017-12-14T11:01:59.869Z,0.67
2017-12-14T11:04:28.417Z,0.90
2017-12-14T11:06:56.099Z,0.80
2017-12-14T11:09:23.818Z,1.00
2017-12-14T11:11:51.491Z,1.00
2017-12-14T11:14:19.204Z,0.60
2017-12-14T11:16:47.642Z,0.60
2017-12-14T11:19:15.373Z,0.70
2017-12-14T11:21:43.227Z,0.40
2017-12-14T11:24:10.949Z,0.63
2017-12-14T11:26:38.665Z,0.77
2017-12-14T11:29:06.468Z,0.67
2017-12-14T11:31:34.246Z,0.43
2017-12-14T11:34:02.038Z,0.47
2017-12-14T11:36:29.747Z,0.50
2017-12-14T11:38:57.443Z,0.60
2017-12-14T11:41:25.886Z,0.60
2017-12-14T11:43:53.930Z,0.73
2017-12-14T11:46:22.395Z,0.73
2017-12-14T11:48:50.139Z,0.97
2017-12-14T11:51:17.957Z,0.77
2017-12-14T11:53:45.782Z,0.77
2017-12-14T11:56:13.531Z,0.67
2017-12-14T11:58:42.092Z,1.13
2017-12-14T12:01:09.956Z,1.03
2017-12-14T12:03:39.498Z,0.73
2017-12-14T12:06:07.162Z,0.83
2017-12-14T12:08:34.879Z,0.93
2017-12-14T12:11:02.588Z,2.03
2017-12-14T12:13:30.309Z,0.77
2017-12-14T12:15:58.746Z,0.80
2017-12-14T12:18:26.451Z,0.50
2017-12-14T12:20:54.981Z,0.90
2017-12-14T12:23:23.575Z,1.13
2017-12-14T12:25:51.267Z,1.13
2017-12-14T12:28:18.944Z,1.30
2017-12-14T12:30:47.565Z,1.10
2017-12-14T12:33:15.311Z,0.70
2017-12-14T12:35:43.027Z,1.00
2017-12-14T12:38:10.771Z,2.30
2017-12-14T12:40:38.563Z,1.30
2017-12-14T12:43:06.264Z,0.80
2017-12-14T12:45:33.943Z,1.23
2017-12-14T12:48:01.638Z,0.93
2017-12-14T12:50:29.331Z,1.17
2017-12-14T12:52:57.041Z,0.90
2017-12-14T12:55:24.774Z,1.20
2017-12-14T12:57:52.624Z,1.47
2017-12-14T13:00:20.385Z,1.43
2017-12-14T13:02:48.137Z,1.40
2017-12-14T13:05:15.983Z,1.40
2017-12-14T13:07:43.747Z,1.00
2017-12-14T13:10:11.512Z,1.10
2017-12-14T13:12:39.243Z,1.60
2017-12-14T13:15:06.983Z,1.00
2017-12-14T13:17:34.664Z,1.90
2017-12-14T13:20:02.374Z,1.63
2017-12-14T13:22:30.053Z,1.10
2017-12-14T13:24:57.862Z,1.17
2017-12-14T13:27:25.531Z,1.00
2017-12-14T13:29:53.209Z,1.83
2017-12-14T13:32:21.774Z,1.40
2017-12-14T13:34:49.476Z,1.37
2017-12-14T13:37:19.098Z,2.00
2017-12-14T13:39:46.805Z,1.50
2017-12-14T13:42:14.590Z,1.20
2017-12-14T13:44:43.036Z,1.30
2017-12-14T13:47:10.772Z,1.13
2017-12-14T13:49:38.544Z,1.87
2017-12-14T13:52:06.274Z,1.57
2017-12-14T13:54:34.041Z,1.27
2017-12-14T13:57:01.706Z,1.20
2017-12-14T13:59:29.491Z,2.03
2017-12-14T14:01:57.448Z,1.43
2017-12-14T14:04:25.294Z,1.70
2017-12-14T14:06:52.931Z,1.30
2017-12-14T14:09:21.433Z,1.60
2017-12-14T14:11:49.094Z,1.70
2017-12-14T14:14:16.772Z,1.90
2017-12-14T14:16:44.458Z,1.30
2017-12-14T14:19:12.095Z,1.60
2017-12-14T14:21:39.875Z,1.40
2017-12-14T14:24:07.530Z,1.57
2017-12-14T14:26:35.269Z,1.90
2017-12-14T14:29:02.893Z,1.67
2017-12-14T14:31:31.339Z,2.53
2017-12-14T14:33:59.014Z,1.63
2017-12-14T14:36:27.501Z,1.80
2017-12-14T14:38:56.114Z,1.80
2017-12-14T14:41:23.751Z,1.87
2017-12-14T14:43:51.387Z,2.00
2017-12-14T14:46:19.068Z,1.43
2017-12-14T14:48:47.520Z,1.67
2017-12-14T14:51:15.199Z,1.57
2017-12-14T14:53:43.610Z,1.43
2017-12-14T14:56:11.271Z,1.93
2017-12-14T14:58:38.915Z,1.37
2017-12-14T15:01:06.539Z,1.57
2017-12-14T15:03:34.192Z,1.87
2017-12-14T15:06:01.835Z,2.53
2017-12-14T15:08:29.520Z,2.27
2017-12-14T15:10:57.175Z,1.40
2017-12-14T15:13:25.193Z,2.70
2017-12-14T15:15:52.897Z,1.90
2017-12-14T15:18:20.545Z,2.30
2017-12-14T15:20:48.159Z,1.00
2017-12-14T15:23:17.011Z,1.33
2017-12-14T15:25:44.619Z,1.93
2017-12-14T15:28:12.257Z,1.23
2017-12-14T15:30:42.801Z,1.20
2017-12-14T15:33:10.679Z,1.83
2017-12-14T15:35:38.329Z,1.50
2017-12-14T15:38:06.114Z,2.27
2017-12-14T15:40:33.798Z,1.90
2017-12-14T15:43:01.410Z,1.40
2017-12-14T15:45:29.819Z,1.67
2017-12-14T15:47:57.662Z,1.90
2017-12-14T15:50:25.322Z,1.60
2017-12-14T15:52:52.963Z,1.63
2017-12-14T15:55:21.374Z,1.10
2017-12-14T15:57:49.006Z,1.50
2017-12-14T16:00:16.983Z,1.40
2017-12-14T16:02:44.757Z,1.50
2017-12-14T16:05:13.652Z,1.10
2017-12-14T16:07:41.327Z,1.20
2017-12-14T16:10:08.950Z,1.13
2017-12-14T16:12:36.599Z,1.23
2017-12-14T16:15:04.986Z,1.53
2017-12-14T16:17:32.651Z,1.70
2017-12-14T16:20:00.259Z,1.20
2017-12-14T16:22:31.335Z,1.40
2017-12-14T16:24:59.744Z,1.50
2017-12-14T16:27:27.364Z,1.20
2017-12-14T16:29:56.015Z,1.03
2017-12-14T16:32:23.639Z,1.60
2017-12-14T16:34:51.295Z,0.80
2017-12-14T16:37:19.074Z,1.40
2017-12-14T16:39:46.682Z,1.53
2017-12-14T16:42:14.330Z,1.03
2017-12-14T16:44:42.047Z,0.90
2017-12-14T16:47:09.683Z,1.27
2017-12-14T16:49:38.144Z,1.20
2017-12-14T16:52:06.570Z,1.10
2017-12-14T16:54:35.151Z,1.27
2017-12-14T16:57:03.543Z,1.20
2017-12-14T16:59:31.193Z,1.17
2017-12-14T17:01:58.931Z,1.53
2017-12-14T17:04:26.680Z,1.27
2017-12-14T17:06:55.064Z,0.93
2017-12-14T17:09:22.678Z,1.00
2017-12-14T17:11:50.319Z,1.03
2017-12-14T17:14:17.940Z,0.97
2017-12-14T17:16:46.356Z,1.10
2017-12-14T17:19:14.050Z,0.90
2017-12-14T17:21:41.760Z,0.80
2017-12-14T17:24:10.131Z,0.70
2017-12-14T17:26:37.870Z,1.20
2017-12-14T17:29:06.255Z,1.07
2017-12-14T17:31:33.927Z,0.60
2017-12-14T17:34:01.567Z,0.90
2017-12-14T17:36:29.952Z,1.17
2017-12-14T17:38:57.757Z,0.87
2017-12-14T17:41:25.392Z,1.10
2017-12-14T17:44:05.005Z,0.90
2017-12-14T17:46:33.385Z,1.00
2017-12-14T17:49:01.794Z,1.00
2017-12-14T17:51:29.420Z,1.40
2017-12-14T17:53:57.900Z,1.23
2017-12-14T17:56:26.355Z,0.93
2017-12-14T17:58:53.994Z,1.10
2017-12-14T18:01:21.635Z,1.40
2017-12-14T18:03:49.243Z,1.43
2017-12-14T18:06:16.972Z,1.20
2017-12-14T18:08:44.699Z,1.13
2017-12-14T18:11:12.360Z,1.13
2017-12-14T18:13:39.969Z,1.10
2017-12-14T18:16:07.742Z,1.00
2017-12-14T18:18:35.405Z,1.10
2017-12-14T18:21:03.044Z,1.47
2017-12-14T18:23:30.728Z,1.17
2017-12-14T18:25:58.335Z,1.30
2017-12-14T18:28:26.063Z,1.00
2017-12-14T18:30:54.455Z,1.50
2017-12-14T18:33:22.151Z,0.90
2017-12-14T18:35:49.784Z,1.13
2017-12-14T18:38:17.555Z,1.67
2017-12-14T18:40:45.230Z,1.30
2017-12-14T18:43:12.904Z,1.53
2017-12-14T18:45:40.630Z,1.27
2017-12-14T18:48:08.390Z,1.40
2017-12-14T18:50:37.023Z,1.30
2017-12-14T18:53:04.832Z,1.80
2017-12-14T18:55:32.752Z,1.60
2017-12-14T18:58:01.557Z,1.27
2017-12-14T19:00:29.496Z,1.53
2017-12-14T19:02:57.344Z,1.37
2017-12-14T19:05:25.180Z,1.37
2017-12-14T19:07:53.044Z,1.63
2017-12-14T19:10:21.005Z,2.30
2017-12-14T19:12:50.387Z,1.40
2017-12-14T19:15:18.953Z,1.17
2017-12-14T19:17:46.695Z,1.33
2017-12-14T19:20:14.390Z,1.60
2017-12-14T19:22:44.451Z,1.03
2017-12-14T19:25:12.143Z,1.07
2017-12-14T19:27:39.936Z,1.40
2017-12-14T19:30:08.760Z,1.27
2017-12-14T19:32:36.663Z,0.97
2017-12-14T19:35:04.362Z,1.00
2017-12-14T19:37:32.085Z,0.63
2017-12-14T19:39:59.885Z,0.80
2017-12-14T19:42:28.284Z,1.00
2017-12-14T19:44:56.731Z,0.80
2017-12-14T19:47:25.203Z,0.83
2017-12-14T19:49:53.657Z,0.73
2017-12-14T19:52:21.323Z,0.60
2017-12-14T19:54:49.182Z,0.90
2017-12-14T19:57:17.029Z,1.03
2017-12-14T19:59:44.938Z,0.70
2017-12-14T20:02:12.761Z,0.80
2017-12-14T20:04:40.771Z,0.60
2017-12-14T20:07:09.376Z,0.50
2017-12-14T20:09:37.138Z,0.60
2017-12-14T20:12:04.968Z,0.80
2017-12-14T20:14:33.495Z,1.00
2017-12-14T20:17:01.219Z,0.83
2017-12-14T20:19:29.091Z,1.00
2017-12-14T20:21:57.651Z,1.10
2017-12-14T20:24:25.403Z,0.80
2017-12-14T20:26:53.177Z,1.17
2017-12-14T20:29:21.034Z,0.87
2017-12-14T20:31:49.013Z,0.87
2017-12-14T20:34:16.937Z,1.20
2017-12-14T20:36:44.877Z,0.80
2017-12-14T20:39:13.436Z,0.90
2017-12-14T20:41:41.874Z,0.90
2017-12-14T20:44:09.960Z,0.50
2017-12-14T20:46:37.843Z,0.60
2017-12-14T20:49:05.720Z,0.83
2017-12-14T20:51:33.623Z,1.53
2017-12-14T20:54:01.540Z,0.90
2017-12-14T20:56:29.481Z,0.97
2017-12-14T20:58:57.382Z,0.80
2017-12-14T21:01:25.913Z,0.80
2017-12-14T21:03:53.708Z,0.67
2017-12-14T21:06:21.585Z,1.10
2017-12-14T21:08:49.456Z,0.70
2017-12-14T21:11:17.963Z,0.60
2017-12-14T21:13:45.796Z,0.60
2017-12-14T21:16:14.202Z,0.60
2017-12-14T21:18:42.240Z,0.60
2017-12-14T21:21:10.739Z,1.00
2017-12-14T21:23:38.390Z,0.70
2017-12-14T21:26:06.854Z,0.60
2017-12-14T21:28:35.258Z,0.60
2017-12-14T21:31:02.942Z,0.67
2017-12-14T21:33:30.690Z,0.60
2017-12-14T21:35:58.396Z,0.70
2017-12-14T21:38:26.812Z,0.60
2017-12-14T21:40:55.352Z,0.70
2017-12-14T21:43:23.435Z,0.90
2017-12-14T21:45:51.252Z,0.63
2017-12-14T21:48:19.074Z,0.90
2017-12-14T21:50:47.750Z,0.80
2017-12-14T21:53:15.915Z,1.30
2017-12-14T21:55:43.862Z,0.80
2017-12-14T21:58:11.949Z,0.67
2017-12-14T22:00:40.861Z,1.00
2017-12-14T22:03:09.621Z,0.70
2017-12-14T22:05:38.034Z,0.60
2017-12-14T22:08:06.726Z,0.70
2017-12-14T22:10:34.624Z,0.60
2017-12-14T22:13:02.488Z,1.00
2017-12-14T22:15:30.168Z,0.70
2017-12-14T22:17:58.536Z,0.63
2017-12-14T22:20:26.505Z,0.60
2017-12-14T22:22:54.784Z,0.50
2017-12-14T22:25:22.884Z,0.60
2017-12-14T22:27:51.556Z,0.80
2017-12-14T22:30:19.433Z,0.77
2017-12-14T22:32:48.031Z,0.70
2017-12-14T22:35:16.488Z,0.63
2017-12-14T22:37:44.293Z,0.77
2017-12-14T22:40:12.013Z,0.70
2017-12-14T22:42:39.751Z,0.70
2017-12-14T22:45:07.590Z,0.80
2017-12-14T22:47:35.324Z,0.70
2017-12-14T22:50:03.198Z,0.60
2017-12-14T22:52:31.187Z,0.90
2017-12-14T22:54:59.040Z,0.60
2017-12-14T22:57:27.860Z,0.90
2017-12-14T22:59:56.301Z,0.87
2017-12-14T23:02:25.646Z,0.97
2017-12-14T23:04:54.779Z,0.73
2017-12-14T23:07:24.360Z,0.60
2017-12-14T23:09:52.830Z,0.70
2017-12-14T23:12:20.659Z,0.80
2017-12-14T23:14:48.407Z,0.80
2017-12-14T23:17:16.075Z,0.90
2017-12-14T23:19:43.784Z,0.80
2017-12-14T23:22:12.615Z,0.90
2017-12-14T23:24:41.217Z,0.90
2017-12-14T23:27:09.269Z,0.50
2017-12-14T23:29:37.383Z,0.53
2017-12-14T23:32:06.735Z,0.60
2017-12-14T23:34:36.115Z,0.90
2017-12-14T23:37:04.298Z,0.60
2017-12-14T23:39:32.262Z,0.43
2017-12-14T23:42:00.269Z,0.70
2017-12-14T23:44:28.654Z,0.60
2017-12-14T23:46:58.153Z,0.70
2017-12-14T23:49:26.087Z,0.80
2017-12-14T23:51:54.887Z,0.80
2017-12-14T23:54:22.603Z,0.70
2017-12-14T23:56:50.279Z,0.63
2017-12-14T23:59:17.926Z,0.67
